sensor_id;sensor_type;location;lat;lon;timestamp;temperature;humidity
45868;DHT22;31582;45.490;7.860;2023-06-14T00:01:59;18.70;99.90
45868;DHT22;31582;45.490;7.860;2023-06-14T00:04:26;18.60;99.90
45868;DHT22;31582;45.490;7.860;2023-06-14T00:06:53;18.60;99.90
45868;DHT22;31582;45.490;7.860;2023-06-14T00:09:20;18.60;99.90
45868;DHT22;31582;45.490;7.860;2023-06-14T00:11:47;18.60;99.90
45868;DHT22;31582;45.490;7.860;2023-06-14T00:14:14;18.60;99.90
45868;DHT22;31582;45.490;7.860;2023-06-14T00:16:41;18.60;99.90
45868;DHT22;31582;45.490;7.860;2023-06-14T00:19:09;18.60;99.90
45868;DHT22;31582;45.490;7.860;2023-06-14T00:21:38;18.60;99.90
45868;DHT22;31582;45.490;7.860;2023-06-14T00:24:05;18.60;99.90
45868;DHT22;31582;45.490;7.860;2023-06-14T00:26:32;18.60;99.90
45868;DHT22;31582;45.490;7.860;2023-06-14T00:28:59;18.60;99.90
45868;DHT22;31582;45.490;7.860;2023-06-14T00:31:26;18.60;99.90
45868;DHT22;31582;45.490;7.860;2023-06-14T00:33:53;18.60;99.90
45868;DHT22;31582;45.490;7.860;2023-06-14T00:36:20;18.60;99.90
45868;DHT22;31582;45.490;7.860;2023-06-14T00:38:47;18.60;99.90
45868;DHT22;31582;45.490;7.860;2023-06-14T00:41:14;18.50;99.90
45868;DHT22;31582;45.490;7.860;2023-06-14T00:43:41;18.50;99.90
45868;DHT22;31582;45.490;7.860;2023-06-14T00:46:08;18.50;99.90
45868;DHT22;31582;45.490;7.860;2023-06-14T00:48:36;18.50;99.90
45868;DHT22;31582;45.490;7.860;2023-06-14T00:51:03;18.50;99.90
45868;DHT22;31582;45.490;7.860;2023-06-14T00:53:31;18.50;99.90
45868;DHT22;31582;45.490;7.860;2023-06-14T00:56:00;18.50;99.90
45868;DHT22;31582;45.490;7.860;2023-06-14T00:58:28;18.50;99.90
45868;DHT22;31582;45.490;7.860;2023-06-14T01:00:55;18.50;99.90
45868;DHT22;31582;45.490;7.860;2023-06-14T01:03:24;18.50;99.90
45868;DHT22;31582;45.490;7.860;2023-06-14T01:05:59;18.50;99.90
45868;DHT22;31582;45.490;7.860;2023-06-14T01:08:43;18.50;99.90
45868;DHT22;31582;45.490;7.860;2023-06-14T01:11:21;18.50;99.90
45868;DHT22;31582;45.490;7.860;2023-06-14T01:13:52;18.50;99.90
45868;DHT22;31582;45.490;7.860;2023-06-14T01:16:20;18.50;99.90
45868;DHT22;31582;45.490;7.860;2023-06-14T01:18:47;18.60;99.90
45868;DHT22;31582;45.490;7.860;2023-06-14T01:21:25;18.60;99.90
45868;DHT22;31582;45.490;7.860;2023-06-14T01:23:52;18.60;99.90
45868;DHT22;31582;45.490;7.860;2023-06-14T01:26:23;18.60;99.90
45868;DHT22;31582;45.490;7.860;2023-06-14T01:28:50;18.60;99.90
45868;DHT22;31582;45.490;7.860;2023-06-14T01:31:20;18.60;99.90
45868;DHT22;31582;45.490;7.860;2023-06-14T01:33:51;18.60;99.90
45868;DHT22;31582;45.490;7.860;2023-06-14T01:36:19;18.60;99.90
45868;DHT22;31582;45.490;7.860;2023-06-14T01:38:48;18.60;99.90
45868;DHT22;31582;45.490;7.860;2023-06-14T01:41:18;18.60;99.90
45868;DHT22;31582;45.490;7.860;2023-06-14T01:43:48;18.60;99.90
45868;DHT22;31582;45.490;7.860;2023-06-14T01:46:16;18.60;99.90
45868;DHT22;31582;45.490;7.860;2023-06-14T01:48:43;18.60;99.90
45868;DHT22;31582;45.490;7.860;2023-06-14T01:51:11;18.50;99.90
45868;DHT22;31582;45.490;7.860;2023-06-14T01:53:37;18.50;99.90
45868;DHT22;31582;45.490;7.860;2023-06-14T01:56:05;18.50;99.90
45868;DHT22;31582;45.490;7.860;2023-06-14T01:58:32;18.40;99.90
45868;DHT22;31582;45.490;7.860;2023-06-14T02:00:59;18.40;99.90
45868;DHT22;31582;45.490;7.860;2023-06-14T02:03:27;18.40;99.90
45868;DHT22;31582;45.490;7.860;2023-06-14T02:05:54;18.40;99.90
45868;DHT22;31582;45.490;7.860;2023-06-14T02:08:22;18.40;99.90
45868;DHT22;31582;45.490;7.860;2023-06-14T02:10:50;18.40;99.90
45868;DHT22;31582;45.490;7.860;2023-06-14T02:13:17;18.40;99.90
45868;DHT22;31582;45.490;7.860;2023-06-14T02:15:44;18.40;99.90
45868;DHT22;31582;45.490;7.860;2023-06-14T02:18:12;18.40;99.90
45868;DHT22;31582;45.490;7.860;2023-06-14T02:20:39;18.40;99.90
45868;DHT22;31582;45.490;7.860;2023-06-14T02:23:06;18.40;99.90
45868;DHT22;31582;45.490;7.860;2023-06-14T02:25:34;18.40;99.90
45868;DHT22;31582;45.490;7.860;2023-06-14T02:28:02;18.40;99.90
45868;DHT22;31582;45.490;7.860;2023-06-14T02:30:29;18.40;99.90
45868;DHT22;31582;45.490;7.860;2023-06-14T02:32:56;18.40;99.90
45868;DHT22;31582;45.490;7.860;2023-06-14T02:35:23;18.30;99.90
45868;DHT22;31582;45.490;7.860;2023-06-14T02:37:53;18.40;99.90
45868;DHT22;31582;45.490;7.860;2023-06-14T02:40:20;18.40;99.90
45868;DHT22;31582;45.490;7.860;2023-06-14T02:42:47;18.40;99.90
45868;DHT22;31582;45.490;7.860;2023-06-14T02:45:14;18.40;99.90
45868;DHT22;31582;45.490;7.860;2023-06-14T02:47:41;18.40;99.90
45868;DHT22;31582;45.490;7.860;2023-06-14T02:50:09;18.40;99.90
45868;DHT22;31582;45.490;7.860;2023-06-14T02:52:36;18.40;99.90
45868;DHT22;31582;45.490;7.860;2023-06-14T02:55:04;18.40;99.90
45868;DHT22;31582;45.490;7.860;2023-06-14T02:57:31;18.40;99.90
45868;DHT22;31582;45.490;7.860;2023-06-14T03:00:01;18.40;99.90
45868;DHT22;31582;45.490;7.860;2023-06-14T03:02:28;18.40;99.90
45868;DHT22;31582;45.490;7.860;2023-06-14T03:04:55;18.40;99.90
45868;DHT22;31582;45.490;7.860;2023-06-14T03:07:22;18.40;99.90
45868;DHT22;31582;45.490;7.860;2023-06-14T03:09:49;18.40;99.90
45868;DHT22;31582;45.490;7.860;2023-06-14T03:12:16;18.40;99.90
45868;DHT22;31582;45.490;7.860;2023-06-14T03:14:43;18.40;99.90
45868;DHT22;31582;45.490;7.860;2023-06-14T03:17:13;18.40;99.90
45868;DHT22;31582;45.490;7.860;2023-06-14T03:19:40;18.30;99.90
45868;DHT22;31582;45.490;7.860;2023-06-14T03:22:08;18.40;99.90
45868;DHT22;31582;45.490;7.860;2023-06-14T03:24:34;18.40;99.90
45868;DHT22;31582;45.490;7.860;2023-06-14T03:27:04;18.40;99.90
45868;DHT22;31582;45.490;7.860;2023-06-14T03:29:31;18.40;99.90
45868;DHT22;31582;45.490;7.860;2023-06-14T03:32:02;18.40;99.90
45868;DHT22;31582;45.490;7.860;2023-06-14T03:34:29;18.40;99.90
45868;DHT22;31582;45.490;7.860;2023-06-14T03:36:57;18.40;99.90
45868;DHT22;31582;45.490;7.860;2023-06-14T03:39:24;18.40;99.90
45868;DHT22;31582;45.490;7.860;2023-06-14T03:41:51;18.40;99.90
45868;DHT22;31582;45.490;7.860;2023-06-14T03:44:18;18.40;99.90
45868;DHT22;31582;45.490;7.860;2023-06-14T03:46:45;18.30;99.90
45868;DHT22;31582;45.490;7.860;2023-06-14T03:49:13;18.30;99.90
45868;DHT22;31582;45.490;7.860;2023-06-14T03:51:40;18.30;99.90
45868;DHT22;31582;45.490;7.860;2023-06-14T03:54:07;18.30;99.90
45868;DHT22;31582;45.490;7.860;2023-06-14T03:56:37;18.30;99.90
45868;DHT22;31582;45.490;7.860;2023-06-14T03:59:04;18.30;99.90
45868;DHT22;31582;45.490;7.860;2023-06-14T04:01:30;18.30;99.90
45868;DHT22;31582;45.490;7.860;2023-06-14T04:03:57;18.40;99.90
45868;DHT22;31582;45.490;7.860;2023-06-14T04:06:25;18.40;99.90
45868;DHT22;31582;45.490;7.860;2023-06-14T04:09:01;18.30;99.90
45868;DHT22;31582;45.490;7.860;2023-06-14T04:11:29;18.40;99.90
45868;DHT22;31582;45.490;7.860;2023-06-14T04:13:56;18.40;99.90
45868;DHT22;31582;45.490;7.860;2023-06-14T04:16:23;18.40;99.90
45868;DHT22;31582;45.490;7.860;2023-06-14T04:18:50;18.40;99.90
45868;DHT22;31582;45.490;7.860;2023-06-14T04:21:18;18.40;99.90
45868;DHT22;31582;45.490;7.860;2023-06-14T04:23:45;18.40;99.90
45868;DHT22;31582;45.490;7.860;2023-06-14T04:26:12;18.40;99.90
45868;DHT22;31582;45.490;7.860;2023-06-14T04:28:39;18.40;99.90
45868;DHT22;31582;45.490;7.860;2023-06-14T04:31:07;18.40;99.90
45868;DHT22;31582;45.490;7.860;2023-06-14T04:33:35;18.40;99.90
45868;DHT22;31582;45.490;7.860;2023-06-14T04:36:10;18.40;99.90
45868;DHT22;31582;45.490;7.860;2023-06-14T04:38:44;18.40;99.90
45868;DHT22;31582;45.490;7.860;2023-06-14T04:41:12;18.40;99.90
45868;DHT22;31582;45.490;7.860;2023-06-14T04:43:39;18.40;99.90
45868;DHT22;31582;45.490;7.860;2023-06-14T04:46:07;18.40;99.90
45868;DHT22;31582;45.490;7.860;2023-06-14T04:48:39;18.40;99.90
45868;DHT22;31582;45.490;7.860;2023-06-14T04:51:08;18.50;99.90
45868;DHT22;31582;45.490;7.860;2023-06-14T04:53:35;18.40;99.90
45868;DHT22;31582;45.490;7.860;2023-06-14T04:56:03;18.50;99.90
45868;DHT22;31582;45.490;7.860;2023-06-14T04:58:30;18.60;99.90
45868;DHT22;31582;45.490;7.860;2023-06-14T05:00:59;18.60;99.90
45868;DHT22;31582;45.490;7.860;2023-06-14T05:03:26;18.60;99.90
45868;DHT22;31582;45.490;7.860;2023-06-14T05:05:54;18.60;99.90
45868;DHT22;31582;45.490;7.860;2023-06-14T05:08:22;18.60;99.90
45868;DHT22;31582;45.490;7.860;2023-06-14T05:10:53;18.70;99.90
45868;DHT22;31582;45.490;7.860;2023-06-14T05:13:19;18.60;99.90
45868;DHT22;31582;45.490;7.860;2023-06-14T05:15:48;18.70;99.90
45868;DHT22;31582;45.490;7.860;2023-06-14T05:18:15;18.60;99.90
45868;DHT22;31582;45.490;7.860;2023-06-14T05:20:43;18.60;99.90
45868;DHT22;31582;45.490;7.860;2023-06-14T05:23:10;18.70;99.90
45868;DHT22;31582;45.490;7.860;2023-06-14T05:25:43;18.70;99.90
45868;DHT22;31582;45.490;7.860;2023-06-14T05:28:10;18.70;99.90
45868;DHT22;31582;45.490;7.860;2023-06-14T05:30:38;18.80;99.90
45868;DHT22;31582;45.490;7.860;2023-06-14T05:33:06;18.80;99.90
45868;DHT22;31582;45.490;7.860;2023-06-14T05:35:33;18.80;99.90
45868;DHT22;31582;45.490;7.860;2023-06-14T05:38:00;18.80;99.90
45868;DHT22;31582;45.490;7.860;2023-06-14T05:40:27;18.80;99.90
45868;DHT22;31582;45.490;7.860;2023-06-14T05:42:54;18.90;99.90
45868;DHT22;31582;45.490;7.860;2023-06-14T05:45:21;18.90;99.90
45868;DHT22;31582;45.490;7.860;2023-06-14T05:47:48;18.90;99.90
45868;DHT22;31582;45.490;7.860;2023-06-14T05:50:15;19.00;99.90
45868;DHT22;31582;45.490;7.860;2023-06-14T05:52:42;19.00;99.90
45868;DHT22;31582;45.490;7.860;2023-06-14T05:55:09;19.00;99.90
45868;DHT22;31582;45.490;7.860;2023-06-14T05:57:40;19.00;99.90
45868;DHT22;31582;45.490;7.860;2023-06-14T06:00:08;19.00;99.90
45868;DHT22;31582;45.490;7.860;2023-06-14T06:02:38;19.00;99.90
45868;DHT22;31582;45.490;7.860;2023-06-14T06:05:05;19.00;99.90
45868;DHT22;31582;45.490;7.860;2023-06-14T06:07:32;19.00;99.90
45868;DHT22;31582;45.490;7.860;2023-06-14T06:10:03;19.00;99.90
45868;DHT22;31582;45.490;7.860;2023-06-14T06:12:30;19.00;99.90
45868;DHT22;31582;45.490;7.860;2023-06-14T06:14:57;19.00;99.90
45868;DHT22;31582;45.490;7.860;2023-06-14T06:17:25;19.10;99.90
45868;DHT22;31582;45.490;7.860;2023-06-14T06:20:05;19.10;99.90
45868;DHT22;31582;45.490;7.860;2023-06-14T06:22:34;19.00;99.90
45868;DHT22;31582;45.490;7.860;2023-06-14T06:25:01;19.00;99.90
45868;DHT22;31582;45.490;7.860;2023-06-14T06:27:29;19.00;99.90
45868;DHT22;31582;45.490;7.860;2023-06-14T06:29:56;19.00;99.90
45868;DHT22;31582;45.490;7.860;2023-06-14T06:32:23;19.00;99.90
45868;DHT22;31582;45.490;7.860;2023-06-14T06:34:50;19.00;99.90
45868;DHT22;31582;45.490;7.860;2023-06-14T06:37:17;19.00;99.90
45868;DHT22;31582;45.490;7.860;2023-06-14T06:39:43;19.10;99.90
45868;DHT22;31582;45.490;7.860;2023-06-14T06:42:12;19.10;99.90
45868;DHT22;31582;45.490;7.860;2023-06-14T06:44:39;19.20;99.90
45868;DHT22;31582;45.490;7.860;2023-06-14T06:47:06;19.20;99.90
45868;DHT22;31582;45.490;7.860;2023-06-14T06:49:33;19.30;99.90
45868;DHT22;31582;45.490;7.860;2023-06-14T06:52:01;19.40;99.90
45868;DHT22;31582;45.490;7.860;2023-06-14T06:54:28;19.40;99.90
45868;DHT22;31582;45.490;7.860;2023-06-14T06:56:56;19.50;99.90
45868;DHT22;31582;45.490;7.860;2023-06-14T06:59:23;19.60;99.90
45868;DHT22;31582;45.490;7.860;2023-06-14T07:01:50;19.60;99.90
45868;DHT22;31582;45.490;7.860;2023-06-14T07:04:20;19.60;99.90
45868;DHT22;31582;45.490;7.860;2023-06-14T07:06:47;19.60;99.90
45868;DHT22;31582;45.490;7.860;2023-06-14T07:09:14;19.70;99.90
45868;DHT22;31582;45.490;7.860;2023-06-14T07:11:46;19.70;99.90
45868;DHT22;31582;45.490;7.860;2023-06-14T07:14:13;19.80;99.90
45868;DHT22;31582;45.490;7.860;2023-06-14T07:16:40;19.90;99.90
45868;DHT22;31582;45.490;7.860;2023-06-14T07:19:08;19.90;99.90
45868;DHT22;31582;45.490;7.860;2023-06-14T07:21:36;20.00;99.90
45868;DHT22;31582;45.490;7.860;2023-06-14T07:24:05;20.10;99.90
45868;DHT22;31582;45.490;7.860;2023-06-14T07:26:33;20.10;99.90
45868;DHT22;31582;45.490;7.860;2023-06-14T07:29:01;20.20;99.90
45868;DHT22;31582;45.490;7.860;2023-06-14T07:31:27;20.30;99.90
45868;DHT22;31582;45.490;7.860;2023-06-14T07:33:54;20.30;99.90
45868;DHT22;31582;45.490;7.860;2023-06-14T07:36:22;20.30;99.90
45868;DHT22;31582;45.490;7.860;2023-06-14T07:38:49;20.40;99.90
45868;DHT22;31582;45.490;7.860;2023-06-14T07:41:16;20.50;99.90
45868;DHT22;31582;45.490;7.860;2023-06-14T07:43:43;20.50;99.90
45868;DHT22;31582;45.490;7.860;2023-06-14T07:46:10;20.50;99.20
45868;DHT22;31582;45.490;7.860;2023-06-14T07:48:37;20.60;99.60
45868;DHT22;31582;45.490;7.860;2023-06-14T07:51:04;20.70;99.50
45868;DHT22;31582;45.490;7.860;2023-06-14T07:53:31;20.80;99.80
45868;DHT22;31582;45.490;7.860;2023-06-14T07:55:58;20.90;98.70
45868;DHT22;31582;45.490;7.860;2023-06-14T07:58:25;21.00;98.70
45868;DHT22;31582;45.490;7.860;2023-06-14T08:00:52;21.20;99.00
45868;DHT22;31582;45.490;7.860;2023-06-14T08:03:19;21.50;98.40
45868;DHT22;31582;45.490;7.860;2023-06-14T08:05:46;21.70;96.50
45868;DHT22;31582;45.490;7.860;2023-06-14T08:08:13;22.00;96.00
45868;DHT22;31582;45.490;7.860;2023-06-14T08:10:40;22.20;94.30
45868;DHT22;31582;45.490;7.860;2023-06-14T08:13:07;22.30;92.80
45868;DHT22;31582;45.490;7.860;2023-06-14T08:15:36;22.20;92.90
45868;DHT22;31582;45.490;7.860;2023-06-14T08:18:03;22.30;92.50
45868;DHT22;31582;45.490;7.860;2023-06-14T08:20:30;22.30;92.00
45868;DHT22;31582;45.490;7.860;2023-06-14T08:22:58;22.20;92.10
45868;DHT22;31582;45.490;7.860;2023-06-14T08:25:25;22.20;92.70
45868;DHT22;31582;45.490;7.860;2023-06-14T08:27:52;22.10;92.00
45868;DHT22;31582;45.490;7.860;2023-06-14T08:30:19;22.00;92.30
45868;DHT22;31582;45.490;7.860;2023-06-14T08:32:46;21.90;92.80
45868;DHT22;31582;45.490;7.860;2023-06-14T08:35:19;21.80;92.30
45868;DHT22;31582;45.490;7.860;2023-06-14T08:37:46;21.70;93.30
45868;DHT22;31582;45.490;7.860;2023-06-14T08:40:22;21.60;93.20
45868;DHT22;31582;45.490;7.860;2023-06-14T08:42:54;21.60;94.00
45868;DHT22;31582;45.490;7.860;2023-06-14T08:45:22;21.60;94.50
45868;DHT22;31582;45.490;7.860;2023-06-14T08:47:53;21.60;94.30
45868;DHT22;31582;45.490;7.860;2023-06-14T08:50:26;21.60;94.50
45868;DHT22;31582;45.490;7.860;2023-06-14T08:52:59;21.60;93.80
45868;DHT22;31582;45.490;7.860;2023-06-14T08:55:30;21.60;94.00
45868;DHT22;31582;45.490;7.860;2023-06-14T08:58:01;21.60;94.10
45868;DHT22;31582;45.490;7.860;2023-06-14T09:00:30;21.60;94.90
45868;DHT22;31582;45.490;7.860;2023-06-14T09:02:59;21.60;95.10
45868;DHT22;31582;45.490;7.860;2023-06-14T09:05:27;21.70;96.20
45868;DHT22;31582;45.490;7.860;2023-06-14T09:07:55;21.70;95.40
45868;DHT22;31582;45.490;7.860;2023-06-14T09:10:32;21.80;94.80
45868;DHT22;31582;45.490;7.860;2023-06-14T09:13:05;21.80;95.90
45868;DHT22;31582;45.490;7.860;2023-06-14T09:15:34;21.90;94.70
45868;DHT22;31582;45.490;7.860;2023-06-14T09:18:02;22.00;94.00
45868;DHT22;31582;45.490;7.860;2023-06-14T09:20:30;22.10;93.90
45868;DHT22;31582;45.490;7.860;2023-06-14T09:22:58;22.20;95.10
45868;DHT22;31582;45.490;7.860;2023-06-14T09:25:25;22.30;94.40
45868;DHT22;31582;45.490;7.860;2023-06-14T09:28:07;22.40;93.30
45868;DHT22;31582;45.490;7.860;2023-06-14T09:30:37;22.60;93.50
45868;DHT22;31582;45.490;7.860;2023-06-14T09:33:04;22.70;92.70
45868;DHT22;31582;45.490;7.860;2023-06-14T09:35:31;22.90;91.50
45868;DHT22;31582;45.490;7.860;2023-06-14T09:37:58;22.90;88.90
45868;DHT22;31582;45.490;7.860;2023-06-14T09:40:26;22.90;90.30
45868;DHT22;31582;45.490;7.860;2023-06-14T09:42:53;22.90;90.30
45868;DHT22;31582;45.490;7.860;2023-06-14T09:45:22;23.00;88.80
45868;DHT22;31582;45.490;7.860;2023-06-14T09:47:49;23.20;90.40
45868;DHT22;31582;45.490;7.860;2023-06-14T09:50:32;23.30;88.30
45868;DHT22;31582;45.490;7.860;2023-06-14T09:53:06;23.40;83.70
45868;DHT22;31582;45.490;7.860;2023-06-14T09:55:37;23.30;83.10
45868;DHT22;31582;45.490;7.860;2023-06-14T09:58:08;23.30;89.70
45868;DHT22;31582;45.490;7.860;2023-06-14T10:00:36;23.50;90.40
45868;DHT22;31582;45.490;7.860;2023-06-14T10:03:11;23.80;85.40
45868;DHT22;31582;45.490;7.860;2023-06-14T10:05:41;23.90;85.20
45868;DHT22;31582;45.490;7.860;2023-06-14T10:08:09;24.10;82.90
45868;DHT22;31582;45.490;7.860;2023-06-14T10:10:39;24.00;82.50
45868;DHT22;31582;45.490;7.860;2023-06-14T10:13:07;24.00;82.50
45868;DHT22;31582;45.490;7.860;2023-06-14T10:16:11;23.90;79.70
45868;DHT22;31582;45.490;7.860;2023-06-14T10:21:36;23.60;82.00
45868;DHT22;31582;45.490;7.860;2023-06-14T10:24:07;23.50;82.50
45868;DHT22;31582;45.490;7.860;2023-06-14T10:26:35;23.40;84.30
45868;DHT22;31582;45.490;7.860;2023-06-14T10:29:08;23.10;80.90
45868;DHT22;31582;45.490;7.860;2023-06-14T10:31:56;22.80;85.70
45868;DHT22;31582;45.490;7.860;2023-06-14T10:34:27;22.60;87.10
45868;DHT22;31582;45.490;7.860;2023-06-14T10:37:01;22.40;89.20
45868;DHT22;31582;45.490;7.860;2023-06-14T10:39:29;22.30;91.90
45868;DHT22;31582;45.490;7.860;2023-06-14T10:41:57;22.30;90.70
45868;DHT22;31582;45.490;7.860;2023-06-14T10:44:54;22.30;92.60
45868;DHT22;31582;45.490;7.860;2023-06-14T10:47:26;22.50;93.00
45868;DHT22;31582;45.490;7.860;2023-06-14T10:50:10;22.60;90.50
45868;DHT22;31582;45.490;7.860;2023-06-14T10:52:41;22.70;90.10
45868;DHT22;31582;45.490;7.860;2023-06-14T10:57:47;23.00;90.60
45868;DHT22;31582;45.490;7.860;2023-06-14T11:00:21;23.20;88.10
45868;DHT22;31582;45.490;7.860;2023-06-14T11:06:15;23.70;81.50
45868;DHT22;31582;45.490;7.860;2023-06-14T11:09:11;24.00;80.70
45868;DHT22;31582;45.490;7.860;2023-06-14T11:11:46;24.50;80.60
45868;DHT22;31582;45.490;7.860;2023-06-14T11:14:14;24.90;77.00
45868;DHT22;31582;45.490;7.860;2023-06-14T11:16:41;25.30;72.90
45868;DHT22;31582;45.490;7.860;2023-06-14T11:19:08;25.50;67.90
45868;DHT22;31582;45.490;7.860;2023-06-14T11:21:40;25.60;70.50
45868;DHT22;31582;45.490;7.860;2023-06-14T11:24:10;25.60;68.80
45868;DHT22;31582;45.490;7.860;2023-06-14T11:26:39;25.60;68.70
45868;DHT22;31582;45.490;7.860;2023-06-14T11:29:06;25.60;66.00
45868;DHT22;31582;45.490;7.860;2023-06-14T11:31:33;25.60;66.50
45868;DHT22;31582;45.490;7.860;2023-06-14T11:34:01;25.50;66.30
45868;DHT22;31582;45.490;7.860;2023-06-14T11:36:29;25.50;65.30
45868;DHT22;31582;45.490;7.860;2023-06-14T11:39:01;25.40;66.10
45868;DHT22;31582;45.490;7.860;2023-06-14T11:41:37;25.70;66.80
45868;DHT22;31582;45.490;7.860;2023-06-14T11:44:06;26.00;67.00
45868;DHT22;31582;45.490;7.860;2023-06-14T11:46:33;26.40;66.90
45868;DHT22;31582;45.490;7.860;2023-06-14T11:49:01;26.40;61.80
45868;DHT22;31582;45.490;7.860;2023-06-14T11:51:34;26.30;61.20
45868;DHT22;31582;45.490;7.860;2023-06-14T11:54:02;26.40;63.90
45868;DHT22;31582;45.490;7.860;2023-06-14T11:56:31;26.60;64.00
45868;DHT22;31582;45.490;7.860;2023-06-14T11:58:59;26.80;61.00
45868;DHT22;31582;45.490;7.860;2023-06-14T12:01:27;26.50;59.00
45868;DHT22;31582;45.490;7.860;2023-06-14T12:03:54;26.30;60.50
45868;DHT22;31582;45.490;7.860;2023-06-14T12:06:26;26.10;62.00
45868;DHT22;31582;45.490;7.860;2023-06-14T12:08:56;25.70;63.80
45868;DHT22;31582;45.490;7.860;2023-06-14T12:11:23;25.50;65.80
45868;DHT22;31582;45.490;7.860;2023-06-14T12:13:51;25.70;65.00
45868;DHT22;31582;45.490;7.860;2023-06-14T12:16:17;25.80;63.40
45868;DHT22;31582;45.490;7.860;2023-06-14T12:18:44;25.90;64.90
45868;DHT22;31582;45.490;7.860;2023-06-14T12:21:12;25.90;63.80
45868;DHT22;31582;45.490;7.860;2023-06-14T12:23:43;25.90;66.50
45868;DHT22;31582;45.490;7.860;2023-06-14T12:26:15;25.70;66.90
45868;DHT22;31582;45.490;7.860;2023-06-14T12:28:44;25.60;66.70
45868;DHT22;31582;45.490;7.860;2023-06-14T12:31:12;25.40;65.40
45868;DHT22;31582;45.490;7.860;2023-06-14T12:33:41;25.40;65.80
45868;DHT22;31582;45.490;7.860;2023-06-14T12:36:09;25.40;65.40
45868;DHT22;31582;45.490;7.860;2023-06-14T12:38:37;25.20;65.30
45868;DHT22;31582;45.490;7.860;2023-06-14T12:41:04;25.10;67.20
45868;DHT22;31582;45.490;7.860;2023-06-14T12:43:31;25.00;67.40
45868;DHT22;31582;45.490;7.860;2023-06-14T12:45:59;25.00;68.70
45868;DHT22;31582;45.490;7.860;2023-06-14T12:48:26;25.00;68.40
45868;DHT22;31582;45.490;7.860;2023-06-14T12:50:58;25.20;72.80
45868;DHT22;31582;45.490;7.860;2023-06-14T12:53:25;25.30;68.50
45868;DHT22;31582;45.490;7.860;2023-06-14T12:55:52;25.50;67.60
45868;DHT22;31582;45.490;7.860;2023-06-14T12:58:19;25.70;68.50
45868;DHT22;31582;45.490;7.860;2023-06-14T13:00:47;26.10;67.90
45868;DHT22;31582;45.490;7.860;2023-06-14T13:03:14;26.60;69.80
45868;DHT22;31582;45.490;7.860;2023-06-14T13:05:41;27.20;65.50
45868;DHT22;31582;45.490;7.860;2023-06-14T13:08:09;27.60;60.80
45868;DHT22;31582;45.490;7.860;2023-06-14T13:10:36;27.60;58.90
45868;DHT22;31582;45.490;7.860;2023-06-14T13:13:03;27.50;57.70
45868;DHT22;31582;45.490;7.860;2023-06-14T13:15:30;27.30;59.10
45868;DHT22;31582;45.490;7.860;2023-06-14T13:17:57;27.20;58.60
45868;DHT22;31582;45.490;7.860;2023-06-14T13:20:24;27.40;59.80
45868;DHT22;31582;45.490;7.860;2023-06-14T13:22:51;27.70;60.50
45868;DHT22;31582;45.490;7.860;2023-06-14T13:25:18;28.10;60.20
45868;DHT22;31582;45.490;7.860;2023-06-14T13:27:45;28.40;56.80
45868;DHT22;31582;45.490;7.860;2023-06-14T13:30:12;28.70;55.40
45868;DHT22;31582;45.490;7.860;2023-06-14T13:32:40;28.90;53.90
45868;DHT22;31582;45.490;7.860;2023-06-14T13:35:07;28.80;53.80
45868;DHT22;31582;45.490;7.860;2023-06-14T13:37:34;28.60;53.30
45868;DHT22;31582;45.490;7.860;2023-06-14T13:40:01;28.20;54.40
45868;DHT22;31582;45.490;7.860;2023-06-14T13:42:28;27.70;54.90
45868;DHT22;31582;45.490;7.860;2023-06-14T13:44:58;27.70;57.20
45868;DHT22;31582;45.490;7.860;2023-06-14T13:47:25;28.00;57.10
45868;DHT22;31582;45.490;7.860;2023-06-14T13:49:52;28.30;58.50
45868;DHT22;31582;45.490;7.860;2023-06-14T13:52:19;28.40;55.00
45868;DHT22;31582;45.490;7.860;2023-06-14T13:54:46;28.30;54.30
45868;DHT22;31582;45.490;7.860;2023-06-14T13:57:15;28.10;54.20
45868;DHT22;31582;45.490;7.860;2023-06-14T13:59:43;27.90;54.60
45868;DHT22;31582;45.490;7.860;2023-06-14T14:02:13;27.70;54.40
45868;DHT22;31582;45.490;7.860;2023-06-14T14:04:40;27.60;55.00
45868;DHT22;31582;45.490;7.860;2023-06-14T14:07:08;27.50;56.30
45868;DHT22;31582;45.490;7.860;2023-06-14T14:09:35;27.40;56.80
45868;DHT22;31582;45.490;7.860;2023-06-14T14:12:02;27.20;57.00
45868;DHT22;31582;45.490;7.860;2023-06-14T14:14:31;26.70;56.50
45868;DHT22;31582;45.490;7.860;2023-06-14T14:16:58;26.80;60.00
45868;DHT22;31582;45.490;7.860;2023-06-14T14:19:25;26.90;59.40
45868;DHT22;31582;45.490;7.860;2023-06-14T14:21:52;27.20;61.00
45868;DHT22;31582;45.490;7.860;2023-06-14T14:24:20;27.70;60.50
45868;DHT22;31582;45.490;7.860;2023-06-14T14:26:48;28.10;58.10
45868;DHT22;31582;45.490;7.860;2023-06-14T14:29:16;28.20;55.70
45868;DHT22;31582;45.490;7.860;2023-06-14T14:31:44;28.20;52.90
45868;DHT22;31582;45.490;7.860;2023-06-14T14:34:11;28.20;55.00
45868;DHT22;31582;45.490;7.860;2023-06-14T14:36:38;28.30;55.90
45868;DHT22;31582;45.490;7.860;2023-06-14T14:39:09;28.40;56.50
45868;DHT22;31582;45.490;7.860;2023-06-14T14:41:36;28.80;56.50
45868;DHT22;31582;45.490;7.860;2023-06-14T14:44:07;29.00;54.60
45868;DHT22;31582;45.490;7.860;2023-06-14T14:46:34;29.30;54.40
45868;DHT22;31582;45.490;7.860;2023-06-14T14:49:02;29.40;54.70
45868;DHT22;31582;45.490;7.860;2023-06-14T14:51:29;29.20;52.80
45868;DHT22;31582;45.490;7.860;2023-06-14T14:53:56;28.90;53.10
45868;DHT22;31582;45.490;7.860;2023-06-14T14:56:23;28.90;54.00
45868;DHT22;31582;45.490;7.860;2023-06-14T14:58:50;28.80;53.70
45868;DHT22;31582;45.490;7.860;2023-06-14T15:01:17;28.60;53.00
45868;DHT22;31582;45.490;7.860;2023-06-14T15:03:45;28.20;55.30
45868;DHT22;31582;45.490;7.860;2023-06-14T15:06:15;27.80;56.30
45868;DHT22;31582;45.490;7.860;2023-06-14T15:08:44;27.50;56.20
45868;DHT22;31582;45.490;7.860;2023-06-14T15:11:11;27.40;57.30
45868;DHT22;31582;45.490;7.860;2023-06-14T15:13:38;27.50;58.20
45868;DHT22;31582;45.490;7.860;2023-06-14T15:16:05;27.60;58.60
45868;DHT22;31582;45.490;7.860;2023-06-14T15:18:32;27.70;56.40
45868;DHT22;31582;45.490;7.860;2023-06-14T15:20:59;27.60;56.70
45868;DHT22;31582;45.490;7.860;2023-06-14T15:23:26;27.60;57.40
45868;DHT22;31582;45.490;7.860;2023-06-14T15:25:53;27.60;56.70
45868;DHT22;31582;45.490;7.860;2023-06-14T15:28:20;27.90;55.20
45868;DHT22;31582;45.490;7.860;2023-06-14T15:30:48;28.10;55.90
45868;DHT22;31582;45.490;7.860;2023-06-14T15:33:15;28.40;56.40
45868;DHT22;31582;45.490;7.860;2023-06-14T15:35:42;28.60;55.60
45868;DHT22;31582;45.490;7.860;2023-06-14T15:38:08;28.60;53.80
45868;DHT22;31582;45.490;7.860;2023-06-14T15:40:35;28.60;54.30
45868;DHT22;31582;45.490;7.860;2023-06-14T15:43:02;28.50;52.60
45868;DHT22;31582;45.490;7.860;2023-06-14T15:45:30;28.60;53.00
45868;DHT22;31582;45.490;7.860;2023-06-14T15:47:57;28.90;53.10